Time;durP1;ratioP1;P1;durP2;ratioP2;P2;SDS_P1;SDS_P2;PMS_P1;PMS_P2;Temp;Humidity;BMP_temperature;BMP_pressure;BME280_temperature;BME280_humidity;BME280_pressure;Samples;Min_cycle;Max_cycle;Signal;HPM_P1;HPM_P2
2023/09/10 00:01:05;;;;;;;15.90;14.30;;;20.30;77.60;;;19.58;100.00;96194.97;6118965;23;20372;-64
2023/09/10 00:03:34;;;;;;;16.60;14.80;;;20.30;77.50;;;19.53;100.00;96194.88;6117006;23;20017;-63
2023/09/10 00:06:06;;;;;;;16.48;14.77;;;20.30;77.50;;;19.46;100.00;96197.72;6141459;23;20098;-63
2023/09/10 00:08:34;;;;;;;18.45;15.93;;;20.20;77.70;;;19.40;100.00;96198.66;6140401;23;20021;-63
2023/09/10 00:11:00;;;;;;;17.17;15.38;;;20.10;78.00;;;19.32;100.00;96195.59;6117636;23;20010;-63
2023/09/10 00:13:26;;;;;;;17.63;15.80;;;20.10;78.30;;;19.27;100.00;96199.81;6116592;23;20362;-63
2023/09/10 00:15:52;;;;;;;18.48;16.10;;;20.10;78.60;;;19.25;100.00;96193.09;6117071;23;20469;-64
2023/09/10 00:18:19;;;;;;;17.30;15.60;;;20.10;78.70;;;19.24;100.00;96188.81;6114096;23;20010;-63
2023/09/10 00:20:44;;;;;;;18.60;15.70;;;20.10;78.80;;;19.24;100.00;96189.63;6116901;23;20037;-63
2023/09/10 00:23:10;;;;;;;17.77;16.08;;;20.10;78.80;;;19.25;100.00;96191.25;6117327;23;20467;-62
2023/09/10 00:25:36;;;;;;;16.98;15.18;;;20.10;78.80;;;19.25;100.00;96193.91;6119010;23;20014;-62
2023/09/10 00:28:02;;;;;;;15.80;14.20;;;20.10;78.50;;;19.26;100.00;96182.19;6141345;23;20046;-63
2023/09/10 00:30:28;;;;;;;14.68;13.15;;;20.10;77.80;;;19.26;100.00;96192.03;6140831;23;20080;-62
2023/09/10 00:32:54;;;;;;;15.23;13.63;;;20.10;77.20;;;19.25;100.00;96182.44;6141483;23;20053;-63
2023/09/10 00:35:20;;;;;;;14.48;12.95;;;20.10;76.70;;;19.25;100.00;96188.56;6092028;23;20021;-63
2023/09/10 00:37:46;;;;;;;18.77;14.30;;;20.10;76.60;;;19.23;100.00;96187.16;6093245;23;20014;-63
2023/09/10 00:40:11;;;;;;;15.52;13.88;;;20.10;77.00;;;19.20;100.00;96184.97;6092631;23;20021;-63
2023/09/10 00:42:37;;;;;;;16.55;14.70;;;20.00;77.60;;;19.17;100.00;96177.47;6140964;23;20013;-63
2023/09/10 00:45:06;;;;;;;16.05;14.45;;;19.90;78.00;;;19.16;100.00;96178.53;6117135;23;20021;-64
2023/09/10 00:47:31;;;;;;;17.45;14.57;;;19.90;78.30;;;19.15;100.00;96188.38;6116603;23;20041;-63
2023/09/10 00:49:57;;;;;;;16.55;14.68;;;19.90;78.30;;;19.15;100.00;96190.25;6117368;23;20343;-63
2023/09/10 00:52:23;;;;;;;17.27;15.48;;;20.00;78.40;;;19.14;100.00;96183.28;6139439;23;20030;-63
2023/09/10 00:54:49;;;;;;;16.33;14.73;;;19.90;78.30;;;19.11;100.00;96179.25;6116715;23;20467;-63
2023/09/10 00:57:15;;;;;;;16.48;14.77;;;19.90;78.50;;;19.03;100.00;96176.19;6140687;23;20022;-63
2023/09/10 00:59:41;;;;;;;16.17;14.60;;;19.80;78.80;;;18.93;100.00;96177.59;6116669;23;20014;-64
2023/09/10 01:02:07;;;;;;;16.80;15.10;;;19.70;79.00;;;18.89;100.00;96176.47;6141155;23;20419;-63
2023/09/10 01:04:33;;;;;;;19.25;16.83;;;19.70;79.20;;;18.90;100.00;96185.25;6141214;23;20013;-63
2023/09/10 01:06:58;;;;;;;19.05;15.63;;;19.80;79.10;;;18.93;100.00;96190.13;6140959;23;20022;-63
2023/09/10 01:09:24;;;;;;;16.88;15.27;;;19.80;79.10;;;18.95;100.00;96186.16;6140694;23;20032;-63
2023/09/10 01:11:57;;;;;;;17.02;15.52;;;19.80;78.90;;;18.98;100.00;96185.69;6116224;23;20042;-63
2023/09/10 01:14:26;;;;;;;17.38;15.68;;;19.80;79.00;;;18.98;100.00;96185.69;6137743;23;20024;-63
2023/09/10 01:16:55;;;;;;;17.97;14.63;;;19.80;78.80;;;18.94;100.00;96187.22;6116738;23;20006;-64
2023/09/10 01:19:59;;;;;;;17.08;15.48;;;19.70;78.40;;;18.86;100.00;96190.28;6115427;23;20535;-63
2023/09/10 01:22:50;;;;;;;18.70;16.70;;;19.60;78.60;;;18.80;100.00;96187.75;6135907;23;20025;-64
2023/09/10 01:25:16;;;;;;;18.17;16.38;;;19.50;79.10;;;18.77;100.00;96183.69;6112952;23;20022;-63
2023/09/10 01:27:43;;;;;;;17.50;15.70;;;19.60;79.30;;;18.77;100.00;96186.34;6140501;23;20153;-63
2023/09/10 01:30:09;;;;;;;17.85;15.52;;;19.60;79.30;;;18.77;100.00;96183.69;6140923;23;20462;-63
2023/09/10 01:32:51;;;;;;;19.17;16.77;;;19.60;79.10;;;18.77;100.00;96178.34;6115891;23;20022;-63
2023/09/10 01:35:28;;;;;;;18.77;16.88;;;19.60;78.90;;;18.74;100.00;96178.84;6116632;23;20013;-63
2023/09/10 01:38:27;;;;;;;19.00;16.88;;;19.60;79.00;;;18.73;100.00;96187.88;6141410;23;20073;-62
2023/09/10 01:41:18;;;;;;;17.23;15.63;;;19.60;79.00;;;18.71;100.00;96183.84;6091725;23;20038;-63
2023/09/10 01:43:44;;;;;;;18.67;16.52;;;19.60;79.00;;;18.67;100.00;96178.19;6100306;23;20429;-62
2023/09/10 01:46:10;;;;;;;18.73;16.83;;;19.60;79.00;;;18.64;100.00;96179.47;6140856;23;20025;-63
2023/09/10 01:48:36;;;;;;;19.90;17.80;;;19.60;78.90;;;18.63;100.00;96185.03;6140074;23;20105;-63
2023/09/10 01:51:02;;;;;;;18.95;16.95;;;19.60;79.00;;;18.62;100.00;96186.88;6091366;23;20018;-64
2023/09/10 01:53:28;;;;;;;19.02;17.13;;;19.50;79.20;;;18.60;100.00;96188.16;6116170;23;20021;-64
2023/09/10 01:55:54;;;;;;;19.92;17.92;;;19.50;79.50;;;18.57;100.00;96180.63;6116708;23;20364;-64
2023/09/10 01:58:20;;;;;;;20.23;18.23;;;19.40;79.80;;;18.55;100.00;96188.84;6140652;23;20404;-64
2023/09/10 02:00:46;;;;;;;19.77;17.77;;;19.50;79.60;;;18.54;100.00;96183.75;6140401;23;20032;-64
2023/09/10 02:03:11;;;;;;;19.73;17.55;;;19.40;79.60;;;18.53;100.00;96192.78;6116977;23;20077;-63
2023/09/10 02:05:37;;;;;;;20.42;18.42;;;19.40;79.50;;;18.50;100.00;96188.75;6142532;23;20107;-63
2023/09/10 02:08:05;;;;;;;20.52;18.42;;;19.30;79.60;;;18.49;100.00;96186.31;6118118;23;20539;-63
2023/09/10 02:10:32;;;;;;;20.70;18.52;;;19.40;79.60;;;18.47;100.00;96196.41;6093929;23;20471;-63
2023/09/10 02:12:57;;;;;;;21.02;18.50;;;19.30;79.60;;;18.45;100.00;96195.81;6117667;23;20014;-63
2023/09/10 02:15:23;;;;;;;20.85;18.75;;;19.30;79.60;;;18.43;100.00;96197.91;6118229;23;20372;-63
2023/09/10 02:17:49;;;;;;;20.38;18.38;;;19.30;79.60;;;18.41;100.00;96197.34;6118148;23;20488;-63
2023/09/10 02:20:15;;;;;;;20.70;18.60;;;19.30;79.70;;;18.39;100.00;96194.13;6140075;23;20447;-63
2023/09/10 02:22:41;;;;;;;21.15;18.95;;;19.30;79.50;;;18.37;100.00;96194.34;6119804;23;20376;-63
2023/09/10 02:25:07;;;;;;;21.42;19.27;;;19.20;79.50;;;18.32;100.00;96192.38;6118004;23;20025;-63
2023/09/10 02:27:35;;;;;;;21.63;19.38;;;19.10;80.00;;;18.27;100.00;96194.94;6117975;23;20149;-63
2023/09/10 02:30:05;;;;;;;21.30;19.00;;;19.10;80.20;;;18.27;100.00;96197.59;6117850;23;20404;-63
2023/09/10 02:32:32;;;;;;;20.73;18.52;;;19.10;80.00;;;18.27;100.00;96199.44;6117501;23;20021;-63
2023/09/10 02:34:58;;;;;;;21.05;19.05;;;19.10;79.90;;;18.24;100.00;96195.41;6118216;23;20009;-63
2023/09/10 02:37:23;;;;;;;19.83;17.75;;;19.10;79.90;;;18.20;100.00;96196.94;6117732;23;20048;-64
2023/09/10 02:39:49;;;;;;;20.00;17.95;;;19.10;79.80;;;18.18;100.00;96201.69;6142369;23;20025;-63
2023/09/10 02:42:15;;;;;;;23.35;18.67;;;19.10;79.80;;;18.16;100.00;96198.44;6093093;23;20053;-63
2023/09/10 02:44:41;;;;;;;21.00;18.73;;;19.10;79.80;;;18.12;100.00;96197.28;6141797;23;20112;-62
2023/09/10 02:47:06;;;;;;;21.77;19.58;;;19.00;80.10;;;18.08;100.00;96197.97;6093298;23;20014;-62
2023/09/10 02:49:35;;;;;;;22.73;20.42;;;18.90;80.50;;;18.07;100.00;96199.81;6093778;23;20097;-62
2023/09/10 02:52:01;;;;;;;22.02;19.83;;;18.90;80.80;;;18.05;100.00;96201.91;6117304;23;20106;-62
2023/09/10 02:54:28;;;;;;;22.48;20.17;;;18.90;80.60;;;18.05;100.00;96202.72;6142190;23;20127;-62
2023/09/10 02:56:54;;;;;;;21.90;19.73;;;19.00;80.40;;;18.03;100.00;96201.34;6141832;23;20328;-63
2023/09/10 02:59:22;;;;;;;23.73;21.33;;;19.00;80.60;;;18.02;100.00;96197.88;6093496;23;20009;-62
2023/09/10 03:01:48;;;;;;;23.75;21.38;;;19.00;80.70;;;18.01;100.00;96196.25;6141661;23;20006;-62
2023/09/10 03:04:17;;;;;;;23.42;20.92;;;19.00;80.70;;;18.01;100.00;96200.75;6142126;23;20130;-63
2023/09/10 03:06:46;;;;;;;24.23;21.73;;;19.00;80.70;;;18.01;100.00;96203.44;6092982;23;20024;-62
2023/09/10 03:09:13;;;;;;;23.42;20.92;;;18.90;80.80;;;17.99;100.00;96203.66;6117978;23;20365;-62
2023/09/10 03:11:39;;;;;;;22.92;20.55;;;18.90;80.80;;;17.96;100.00;96203.31;6117093;23;20016;-63
2023/09/10 03:14:07;;;;;;;22.45;19.90;;;18.90;80.50;;;17.94;100.00;96206.22;6141398;23;20002;-62
2023/09/10 03:16:34;;;;;;;22.20;20.00;;;18.90;80.50;;;17.95;100.00;96201.69;6142514;23;20006;-62
2023/09/10 03:19:00;;;;;;;21.95;19.83;;;19.00;80.30;;;17.94;100.00;96200.91;6139304;23;20041;-62
2023/09/10 03:21:26;;;;;;;22.27;19.98;;;18.90;80.30;;;17.94;100.00;96202.75;6117866;23;20069;-63
2023/09/10 03:23:52;;;;;;;22.48;19.45;;;18.80;80.40;;;17.91;100.00;96204.03;6142416;23;20118;-62
2023/09/10 03:26:18;;;;;;;22.40;20.17;;;18.80;80.50;;;17.89;100.00;96207.97;6118379;23;20057;-62
2023/09/10 03:28:44;;;;;;;23.20;20.77;;;18.80;80.90;;;17.87;100.00;96199.38;6142732;23;20010;-63
2023/09/10 03:31:11;;;;;;;23.42;20.98;;;18.70;80.90;;;17.86;100.00;96203.88;6141815;23;20072;-64
2023/09/10 03:33:37;;;;;;;25.13;21.77;;;18.80;80.90;;;17.83;100.00;96200.88;6141654;23;20093;-63
2023/09/10 03:36:03;;;;;;;23.55;21.35;;;18.80;80.80;;;17.83;100.00;96203.53;6117531;23;20053;-63
2023/09/10 03:38:29;;;;;;;23.83;21.55;;;18.70;81.00;;;17.80;100.00;96199.50;6117883;23;20017;-62
2023/09/10 03:40:55;;;;;;;24.45;22.00;;;18.70;80.90;;;17.78;100.00;96200.78;6140994;23;20064;-63
2023/09/10 03:43:21;;;;;;;23.02;20.70;;;18.70;80.80;;;17.76;100.00;96198.34;6117699;23;20017;-62
2023/09/10 03:45:46;;;;;;;23.75;21.30;;;18.70;80.80;;;17.73;100.00;96194.31;6117580;23;20014;-62
2023/09/10 03:48:13;;;;;;;23.13;20.67;;;18.70;80.80;;;17.73;100.00;96193.50;6142682;23;20033;-63
2023/09/10 03:50:38;;;;;;;22.40;20.20;;;18.70;80.80;;;17.71;100.00;96193.72;6117596;23;20038;-62
2023/09/10 03:53:04;;;;;;;21.75;19.55;;;18.60;80.70;;;17.69;100.00;96193.16;6142043;23;20084;-62
2023/09/10 03:55:30;;;;;;;20.45;18.45;;;18.70;80.50;;;17.67;100.00;96189.91;6141200;23;20098;-62
2023/09/10 03:57:56;;;;;;;20.55;17.50;;;18.60;80.60;;;17.66;100.00;96192.78;6117397;23;20018;-63
2023/09/10 04:00:22;;;;;;;19.25;17.25;;;18.60;80.60;;;17.65;100.00;96193.78;6117839;23;20040;-63
2023/09/10 04:02:47;;;;;;;18.60;16.75;;;18.60;80.50;;;17.62;100.00;96197.72;6141806;23;20018;-63
2023/09/10 04:05:13;;;;;;;16.42;14.82;;;18.60;80.60;;;17.61;100.00;96189.97;6119489;23;20092;-62
2023/09/10 04:07:39;;;;;;;16.13;14.30;;;18.60;80.60;;;17.60;100.00;96194.47;6117809;23;20006;-62
2023/09/10 04:10:07;;;;;;;14.40;12.95;;;18.60;80.40;;;17.57;100.00;96194.94;6118094;23;20034;-62
2023/09/10 04:12:32;;;;;;;14.50;13.15;;;18.50;80.30;;;17.56;100.00;96203.16;6117098;23;20096;-63
2023/09/10 04:14:58;;;;;;;14.00;12.70;;;18.50;80.40;;;17.53;100.00;96199.13;6119313;23;20025;-63
2023/09/10 04:17:28;;;;;;;14.48;13.10;;;18.50;80.40;;;17.52;100.00;96202.81;6119469;23;20021;-63
2023/09/10 04:19:54;;;;;;;14.20;12.90;;;18.50;80.50;;;17.49;100.00;96197.97;6139449;23;20020;-63
2023/09/10 04:22:20;;;;;;;13.82;12.43;;;18.50;80.60;;;17.49;100.00;96197.16;6117626;23;20052;-63
2023/09/10 04:24:46;;;;;;;14.48;11.60;;;18.40;80.60;;;17.47;100.00;96200.03;6117579;23;20736;-63
2023/09/10 04:27:12;;;;;;;13.13;11.82;;;18.40;80.50;;;17.44;100.00;96201.31;6140433;23;20034;-63
2023/09/10 04:29:37;;;;;;;12.45;11.15;;;18.40;80.40;;;17.43;100.00;96214.84;6141143;23;20456;-62
2023/09/10 04:32:03;;;;;;;14.30;11.77;;;18.50;80.40;;;17.38;100.00;96207.53;6118850;23;20049;-63
2023/09/10 04:34:29;;;;;;;13.45;12.15;;;18.40;80.30;;;17.35;100.00;96212.50;6118256;23;20006;-63
2023/09/10 04:36:55;;;;;;;13.73;12.32;;;18.40;80.30;;;17.34;100.00;96216.19;6118432;23;20018;-63
2023/09/10 04:39:21;;;;;;;13.73;12.13;;;18.40;80.40;;;17.34;100.00;96217.00;6119119;23;20104;-63
2023/09/10 04:41:47;;;;;;;13.32;11.95;;;18.40;80.40;;;17.33;100.00;96214.56;6141349;23;20475;-65
2023/09/10 04:44:14;;;;;;;13.52;12.00;;;18.40;80.40;;;17.30;100.00;96209.72;6142024;23;20058;-63
2023/09/10 04:46:42;;;;;;;14.05;12.75;;;18.40;80.40;;;17.29;100.00;96213.41;6142581;23;20020;-63
2023/09/10 04:49:08;;;;;;;13.45;12.13;;;18.30;80.70;;;17.29;100.00;96210.75;6117199;23;20022;-62
2023/09/10 04:51:33;;;;;;;14.52;12.45;;;18.30;80.80;;;17.31;100.00;96216.66;6117207;23;20064;-64
2023/09/10 04:53:59;;;;;;;15.82;13.13;;;18.30;80.80;;;17.29;100.00;96224.06;6092655;23;20403;-63
2023/09/10 04:56:25;;;;;;;27.70;24.90;;;18.30;80.80;;;17.28;100.00;96222.44;6141925;23;20285;-62
2023/09/10 04:58:51;;;;;;;31.30;28.00;;;18.30;81.10;;;17.29;100.00;96226.72;6141962;23;20081;-63
2023/09/10 05:01:17;;;;;;;30.02;26.83;;;18.30;81.30;;;17.27;100.00;96234.09;6116829;23;20014;-63
2023/09/10 05:03:42;;;;;;;21.73;18.90;;;18.30;81.60;;;17.24;100.00;96226.59;6141645;23;20018;-63
2023/09/10 05:06:09;;;;;;;20.05;18.00;;;18.30;81.70;;;17.25;100.00;96238.84;6141487;23;20014;-63
2023/09/10 05:08:34;;;;;;;20.70;18.73;;;18.30;81.80;;;17.26;100.00;96235.16;6141752;23;20010;-63
2023/09/10 05:11:00;;;;;;;20.38;17.33;;;18.30;81.90;;;17.25;100.00;96238.84;6117209;23;20077;-62
2023/09/10 05:13:26;;;;;;;19.65;17.55;;;18.30;82.10;;;17.27;100.00;96237.56;6116997;23;20040;-63
2023/09/10 05:15:57;;;;;;;20.02;18.13;;;18.40;81.80;;;17.28;100.00;96233.06;6141926;23;20080;-63
2023/09/10 05:18:26;;;;;;;;;;;18.40;81.60;;;17.26;100.00;96240.47;6139737;23;20089;-65
2023/09/10 05:20:52;;;;;;;19.92;17.83;;;18.40;82.00;;;17.26;100.00;96229.81;6114734;23;20139;-66
2023/09/10 05:23:22;;;;;;;21.08;18.98;;;18.30;82.20;;;17.29;100.00;96234.69;6117291;23;20002;-68
2023/09/10 05:25:48;;;;;;;23.02;20.67;;;18.40;82.00;;;17.30;100.00;96238.97;6139641;23;20503;-68
2023/09/10 05:28:14;;;;;;;24.13;21.52;;;18.50;82.50;;;17.30;100.00;96245.09;6140329;23;20037;-64
2023/09/10 05:30:40;;;;;;;25.33;22.75;;;18.50;82.60;;;17.34;100.00;96238.28;6141379;23;20018;-63
2023/09/10 05:33:06;;;;;;;24.48;22.08;;;18.60;82.70;;;17.40;100.00;96241.88;6116240;23;20026;-63
2023/09/10 05:35:32;;;;;;;23.58;21.08;;;18.60;82.40;;;17.45;100.00;96245.47;6117685;23;20014;-63
2023/09/10 05:37:57;;;;;;;25.40;22.77;;;18.60;82.20;;;17.50;100.00;96247.44;6116755;23;20010;-63
2023/09/10 05:40:25;;;;;;;29.58;26.67;;;18.70;82.10;;;17.55;100.00;96244.09;6118387;23;20118;-62
2023/09/10 05:42:50;;;;;;;42.13;37.70;;;18.80;82.20;;;17.60;100.00;96242.38;6140619;23;20781;-63
2023/09/10 05:45:16;;;;;;;39.10;35.10;;;18.90;82.10;;;17.67;100.00;96240.47;6139317;23;20041;-63
2023/09/10 05:47:42;;;;;;;40.88;36.63;;;19.00;82.20;;;17.73;100.00;96242.19;6116632;23;20010;-64
2023/09/10 05:50:08;;;;;;;39.15;35.05;;;19.00;82.60;;;17.79;100.00;96244.97;6140517;23;20518;-62
2023/09/10 05:52:34;;;;;;;40.38;35.92;;;19.10;83.30;;;17.87;100.00;96244.63;6141489;23;20014;-63
2023/09/10 05:55:00;;;;;;;46.83;41.92;;;19.20;83.20;;;17.95;100.00;96249.59;6141234;23;20022;-64
2023/09/10 05:57:26;;;;;;;57.72;51.50;;;19.30;83.00;;;18.04;100.00;96242.88;6141007;23;20448;-63
2023/09/10 05:59:53;;;;;;;41.50;37.28;;;19.40;82.70;;;18.11;100.00;96238.28;6116270;23;20022;-63
2023/09/10 06:02:19;;;;;;;36.90;33.17;;;19.50;82.80;;;18.19;100.00;96245.91;6140707;23;20014;-64
2023/09/10 06:04:45;;;;;;;42.40;37.97;;;19.60;82.50;;;18.27;100.00;96247.38;6117233;23;20065;-62
2023/09/10 06:07:10;;;;;;;43.85;39.33;;;19.70;82.20;;;18.33;100.00;96247.28;6118154;23;20081;-64
2023/09/10 06:09:36;;;;;;;44.05;39.65;;;19.80;82.20;;;18.41;100.00;96250.63;6118889;23;20025;-62
2023/09/10 06:12:02;;;;;;;35.17;31.52;;;19.80;82.10;;;18.48;100.00;96251.28;6140722;23;20120;-63
2023/09/10 06:14:30;;;;;;;32.00;28.70;;;19.90;82.00;;;18.56;100.00;96256.28;6116806;23;20017;-63
2023/09/10 06:16:58;;;;;;;31.58;28.55;;;20.10;81.70;;;18.65;100.00;96254.88;6117473;23;20006;-64
2023/09/10 06:19:24;;;;;;;30.77;27.55;;;20.20;81.40;;;18.73;100.00;96257.16;6118811;23;20022;-63
2023/09/10 06:21:50;;;;;;;30.23;27.13;;;20.30;81.10;;;18.81;100.00;96259.47;6118145;23;20092;-65
2023/09/10 06:24:15;;;;;;;28.30;25.55;;;20.40;81.00;;;18.86;100.00;96254.25;6092504;23;20038;-65
2023/09/10 06:26:41;;;;;;;28.27;25.30;;;20.40;80.80;;;18.92;100.00;96255.13;6141440;23;20038;-65
2023/09/10 06:29:07;;;;;;;27.77;25.23;;;20.50;80.60;;;18.98;100.00;96260.31;6115784;23;20018;-65
2023/09/10 06:31:33;;;;;;;26.20;23.48;;;20.60;80.30;;;19.06;100.00;96253.00;6142005;23;20298;-65
2023/09/10 06:34:02;;;;;;;24.67;22.27;;;20.70;80.10;;;19.12;100.00;96257.38;6141109;23;20029;-65
2023/09/10 06:36:27;;;;;;;24.17;21.75;;;20.70;79.80;;;19.21;100.00;96253.28;6116643;23;20563;-65
2023/09/10 06:38:53;;;;;;;24.20;21.85;;;20.80;79.80;;;19.26;100.00;96251.53;6092472;23;20026;-65
2023/09/10 06:41:19;;;;;;;23.08;20.98;;;20.80;79.80;;;19.34;100.00;96257.50;6116706;23;20704;-65
2023/09/10 06:43:44;;;;;;;23.52;21.15;;;20.90;79.80;;;19.40;100.00;96252.00;6142069;23;20033;-62
2023/09/10 06:46:10;;;;;;;24.00;20.75;;;21.00;79.90;;;19.50;100.00;96256.72;6138836;23;20503;-64
2023/09/10 06:48:36;;;;;;;22.23;19.95;;;21.10;79.60;;;19.57;100.00;96258.22;6141598;23;20483;-66
2023/09/10 06:51:02;;;;;;;21.58;19.48;;;21.20;79.70;;;19.68;100.00;96261.84;6117994;23;20021;-63
2023/09/10 06:53:29;;;;;;;20.00;18.10;;;21.40;79.40;;;19.78;100.00;96264.69;6094300;23;20033;-64
2023/09/10 06:55:54;;;;;;;21.40;19.35;;;21.50;79.30;;;19.89;100.00;96255.78;6143723;23;20014;-68
2023/09/10 06:58:21;;;;;;;23.58;20.38;;;21.60;79.10;;;20.03;100.00;96256.28;6093930;23;20468;-64
2023/09/10 07:00:47;;;;;;;21.27;19.13;;;21.80;78.60;;;20.17;100.00;96259.41;6143150;23;20088;-63
2023/09/10 07:03:13;;;;;;;21.10;18.85;;;22.20;77.70;;;20.33;100.00;96263.09;6118292;23;20024;-65
2023/09/10 07:05:40;;;;;;;21.83;19.70;;;22.70;76.10;;;20.52;100.00;96266.31;6118846;23;20328;-66
2023/09/10 07:08:06;;;;;;;21.27;19.30;;;23.10;74.90;;;20.70;100.00;96260.69;6117986;23;20020;-64
2023/09/10 07:10:33;;;;;;;21.67;19.58;;;23.10;74.70;;;20.91;100.00;96261.72;6094535;23;20464;-64
2023/09/10 07:13:01;;;;;;;19.00;17.10;;;23.50;73.70;;;21.13;100.00;96265.19;6117838;23;20054;-64
2023/09/10 07:15:27;;;;;;;19.55;17.52;;;24.10;72.50;;;21.38;100.00;96260.13;6118391;23;20447;-65
2023/09/10 07:17:52;;;;;;;19.42;17.52;;;24.70;69.80;;;21.64;100.00;96257.69;6093953;23;20076;-64
2023/09/10 07:20:18;;;;;;;18.33;16.42;;;25.20;68.10;;;21.92;100.00;96257.38;6118235;23;20010;-65
2023/09/10 07:22:44;;;;;;;18.85;17.05;;;25.70;66.90;;;22.23;100.00;96250.38;6143629;23;20037;-64
2023/09/10 07:25:10;;;;;;;16.40;14.80;;;26.20;65.20;;;22.54;100.00;96254.03;6142561;23;20018;-65
2023/09/10 07:27:35;;;;;;;17.92;15.98;;;26.70;63.70;;;22.89;100.00;96260.66;6143096;23;20363;-66
2023/09/10 07:30:03;;;;;;;15.77;13.75;;;27.10;62.40;;;23.23;100.00;96253.78;6118260;23;20029;-66
2023/09/10 07:32:28;;;;;;;15.68;13.75;;;27.50;61.50;;;23.63;100.00;96251.44;6119784;23;20026;-65
2023/09/10 07:34:54;;;;;;;15.15;13.70;;;27.90;60.40;;;24.00;100.00;96251.19;6094413;23;20013;-64
2023/09/10 07:37:20;;;;;;;15.55;14.00;;;28.20;59.30;;;24.39;100.00;96246.03;6117860;23;20211;-63
2023/09/10 07:39:45;;;;;;;17.23;15.43;;;28.50;58.30;;;24.77;100.00;96255.34;6143205;23;20045;-66
2023/09/10 07:42:11;;;;;;;16.55;14.88;;;28.90;57.10;;;25.20;100.00;96255.69;6142552;23;20021;-64
2023/09/10 07:44:37;;;;;;;14.73;13.30;;;29.40;55.80;;;25.56;97.18;96259.75;6116295;23;20113;-64
2023/09/10 07:47:03;;;;;;;12.60;11.40;;;29.50;54.90;;;25.94;95.33;96260.06;6142959;23;20060;-64
2023/09/10 07:49:29;;;;;;;12.20;10.20;;;29.90;54.50;;;26.26;91.85;96254.13;6143560;23;20045;-64
2023/09/10 07:51:54;;;;;;;11.95;10.30;;;30.10;53.80;;;26.54;89.73;96247.91;6142374;23;20018;-65
2023/09/10 07:54:20;;;;;;;18.65;16.17;;;30.50;53.20;;;26.83;87.29;96245.13;6117627;23;20013;-65
2023/09/10 07:56:46;;;;;;;13.80;12.40;;;30.60;51.90;;;27.05;84.45;96241.13;6142747;23;20033;-65
2023/09/10 07:59:12;;;;;;;11.45;10.35;;;30.90;51.50;;;27.27;82.85;96238.66;6119138;23;20006;-64
2023/09/10 08:01:38;;;;;;;11.80;10.70;;;31.00;51.30;;;27.46;81.72;96242.16;6118025;23;20010;-64
2023/09/10 08:04:05;;;;;;;11.95;9.98;;;31.40;50.50;;;27.69;80.46;96250.50;6117615;23;20025;-64
2023/09/10 08:06:30;;;;;;;11.23;10.13;;;31.50;50.00;;;27.87;78.99;96241.56;6117953;23;20455;-64
2023/09/10 08:08:56;;;;;;;11.48;10.35;;;31.70;49.50;;;28.00;77.34;96239.97;6142307;23;20018;-65
2023/09/10 08:11:22;;;;;;;13.15;9.50;;;31.80;49.30;;;28.19;76.77;96242.63;6118934;23;20029;-65
2023/09/10 08:13:48;;;;;;;10.85;9.75;;;32.10;49.20;;;28.34;76.19;96240.50;6142930;23;20014;-66
2023/09/10 08:16:15;;;;;;;10.23;9.00;;;32.10;49.40;;;28.50;75.78;96249.09;6066520;23;20033;-64
2023/09/10 08:18:41;;;;;;;11.10;9.18;;;32.30;49.20;;;28.66;74.73;96231.47;6088500;23;20019;-63
2023/09/10 08:21:07;;;;;;;9.85;8.85;;;32.50;48.20;;;28.85;73.57;96230.56;6063446;23;20015;-65
2023/09/10 08:23:32;;;;;;;9.57;8.38;;;32.60;47.60;;;28.97;73.71;96230.91;6064480;23;20632;-66
2023/09/10 08:25:58;;;;;;;9.23;8.30;;;32.90;48.60;;;29.15;72.42;96227.25;6113509;23;20042;-63
2023/09/10 08:28:24;;;;;;;9.07;8.18;;;33.10;46.90;;;29.38;71.19;96227.28;6112165;23;20550;-64
2023/09/10 08:30:51;;;;;;;8.88;8.00;;;33.50;46.20;;;29.63;69.69;96232.13;6134734;23;20585;-64
2023/09/10 08:33:17;;;;;;;8.68;7.88;;;33.80;45.20;;;29.83;68.40;96220.81;6102408;23;20034;-65
2023/09/10 08:35:47;;;;;;;8.75;7.53;;;33.80;44.90;;;30.05;64.09;96205.66;6113249;23;20018;-64
2023/09/10 08:38:13;;;;;;;18.17;15.38;;;33.90;44.40;;;30.25;65.51;96226.84;6112678;23;20021;-62
2023/09/10 08:40:56;;;;;;;11.73;10.60;;;34.10;44.10;;;30.47;62.03;96205.06;6113063;23;20374;-65
2023/09/10 08:43:59;;;;;;;14.35;13.02;;;34.10;44.10;;;30.71;61.20;96196.53;6140327;23;20017;-64
2023/09/10 08:46:30;;;;;;;21.88;19.67;;;34.30;44.30;;;30.88;64.53;96216.72;6092410;23;20025;-66
2023/09/10 08:48:57;;;;;;;14.30;12.93;;;34.50;44.00;;;31.05;63.45;96217.56;6088335;23;20010;-67
2023/09/10 08:51:23;;;;;;;17.08;15.27;;;34.50;43.90;;;31.22;63.71;96221.44;6104213;23;20029;-66
2023/09/10 08:53:49;;;;;;;9.82;8.57;;;34.60;44.50;;;31.41;63.30;96224.66;6117589;23;20030;-65
2023/09/10 08:56:14;;;;;;;14.15;12.40;;;34.70;45.10;;;31.62;62.50;96217.47;6114854;23;20065;-65
2023/09/10 08:58:42;;;;;;;11.52;10.43;;;34.90;43.80;;;31.83;62.76;96214.13;6088546;23;20010;-64
2023/09/10 09:01:08;;;;;;;9.80;8.93;;;35.00;44.70;;;31.99;61.05;96217.94;6087298;23;20105;-64
2023/09/10 09:03:34;;;;;;;9.25;8.20;;;35.10;43.90;;;32.11;60.24;96209.09;6087658;23;20419;-64
2023/09/10 09:06:03;;;;;;;8.45;7.63;;;35.10;43.70;;;32.29;58.87;96203.31;6112264;23;20023;-66
2023/09/10 09:08:30;;;;;;;8.40;6.90;;;35.40;43.10;;;32.48;57.65;96196.66;6087536;23;20018;-63
2023/09/10 09:11:03;;;;;;;8.30;7.05;;;35.60;40.50;;;32.65;55.86;96177.53;6088159;23;20066;-63
2023/09/10 09:13:30;;;;;;;8.38;7.57;;;35.80;40.80;;;32.82;55.56;96182.91;6139262;23;20475;-64
2023/09/10 09:15:56;;;;;;;7.60;6.90;;;35.90;39.50;;;33.03;54.21;96182.13;6117367;23;20024;-66
2023/09/10 09:18:22;;;;;;;12.95;11.65;;;36.10;39.10;;;33.26;53.55;96177.16;6101880;23;20014;-65
2023/09/10 09:20:50;;;;;;;15.23;13.70;;;36.30;39.30;;;33.55;52.34;96189.94;6063302;23;20121;-63
2023/09/10 09:23:22;;;;;;;8.45;7.57;;;36.60;38.50;;;33.73;51.99;96185.94;6111372;23;20081;-64
2023/09/10 09:25:48;;;;;;;8.05;7.15;;;36.70;39.30;;;33.94;52.34;96183.97;6063811;23;20007;-64
2023/09/10 09:28:15;;;;;;;12.32;10.57;;;36.90;38.80;;;34.10;51.18;96176.72;6086365;23;20101;-68
2023/09/10 09:30:41;;;;;;;15.00;13.35;;;36.90;38.60;;;34.30;51.39;96171.53;6086766;23;20026;-66
2023/09/10 09:33:08;;;;;;;11.93;8.65;;;37.10;39.00;;;34.48;50.43;96178.41;6111030;23;20073;-66
2023/09/10 09:35:33;;;;;;;9.15;7.28;;;37.30;37.90;;;34.68;49.69;96172.03;6094857;23;20076;-67
2023/09/10 09:38:10;;;;;;;12.23;6.65;;;37.50;38.20;;;34.92;45.64;96132.97;6115970;23;20444;-65
2023/09/10 09:40:36;;;;;;;7.72;6.93;;;37.60;36.60;;;35.11;46.67;96151.50;6115879;23;20017;-65
2023/09/10 09:43:05;;;;;;;8.30;7.43;;;37.70;35.70;;;35.27;46.14;96140.63;6093511;23;20101;-64
2023/09/10 09:45:31;;;;;;;7.68;6.90;;;37.90;35.70;;;35.43;45.40;96146.19;6086299;23;20046;-65
2023/09/10 09:47:57;;;;;;;8.63;7.22;;;38.00;36.30;;;35.59;45.20;96149.78;6098059;23;20044;-66
2023/09/10 09:50:25;;;;;;;9.43;6.55;;;38.20;36.30;;;35.79;43.71;96135.09;6135757;23;20022;-63
2023/09/10 09:52:52;;;;;;;24.65;21.90;;;38.40;35.20;;;36.04;44.63;96137.72;6087302;23;20081;-66
2023/09/10 09:55:17;;;;;;;9.93;8.93;;;38.60;35.50;;;36.23;43.58;96135.06;6062588;23;20018;-65
2023/09/10 09:57:46;;;;;;;9.57;8.57;;;38.90;35.20;;;36.42;43.62;96132.41;6111397;23;20034;-65
2023/09/10 10:00:13;;;;;;;8.80;7.35;;;39.30;35.10;;;36.68;44.19;96133.81;6125167;23;20045;-65
2023/09/10 10:02:38;;;;;;;10.18;9.15;;;39.50;34.30;;;36.98;42.80;96129.44;6116382;23;20017;-65